sensor_id;sensor_type;location;lat;lon;timestamp;P1;durP1;ratioP1;P2;durP2;ratioP2
4323;SDS011;2175;51.018;6.994;2023-04-09T00:01:59;55.73;;;37.20;;
4323;SDS011;2175;51.018;6.994;2023-04-09T00:04:25;53.30;;;36.40;;
4323;SDS011;2175;51.018;6.994;2023-04-09T00:06:51;53.63;;;35.70;;
4323;SDS011;2175;51.018;6.994;2023-04-09T00:09:16;52.80;;;38.70;;
4323;SDS011;2175;51.018;6.994;2023-04-09T00:11:42;55.53;;;38.50;;
4323;SDS011;2175;51.018;6.994;2023-04-09T00:14:07;58.27;;;37.40;;
4323;SDS011;2175;51.018;6.994;2023-04-09T00:16:33;53.10;;;37.93;;
4323;SDS011;2175;51.018;6.994;2023-04-09T00:18:58;56.73;;;38.40;;
4323;SDS011;2175;51.018;6.994;2023-04-09T00:21:24;60.70;;;40.37;;
4323;SDS011;2175;51.018;6.994;2023-04-09T00:23:51;57.17;;;37.70;;
4323;SDS011;2175;51.018;6.994;2023-04-09T00:26:16;59.50;;;38.07;;
4323;SDS011;2175;51.018;6.994;2023-04-09T00:28:42;49.97;;;36.93;;
4323;SDS011;2175;51.018;6.994;2023-04-09T00:31:08;56.43;;;38.27;;
4323;SDS011;2175;51.018;6.994;2023-04-09T00:33:34;53.83;;;35.67;;
4323;SDS011;2175;51.018;6.994;2023-04-09T00:36:00;58.43;;;39.00;;
4323;SDS011;2175;51.018;6.994;2023-04-09T00:38:26;50.10;;;35.97;;
4323;SDS011;2175;51.018;6.994;2023-04-09T00:40:52;55.73;;;37.80;;
4323;SDS011;2175;51.018;6.994;2023-04-09T00:43:18;52.90;;;35.37;;
4323;SDS011;2175;51.018;6.994;2023-04-09T00:45:44;54.83;;;37.33;;
4323;SDS011;2175;51.018;6.994;2023-04-09T00:48:10;53.13;;;37.30;;
4323;SDS011;2175;51.018;6.994;2023-04-09T00:50:36;53.20;;;37.23;;
4323;SDS011;2175;51.018;6.994;2023-04-09T00:53:02;54.73;;;38.00;;
4323;SDS011;2175;51.018;6.994;2023-04-09T00:55:29;50.67;;;35.40;;
4323;SDS011;2175;51.018;6.994;2023-04-09T00:57:55;50.30;;;33.93;;
4323;SDS011;2175;51.018;6.994;2023-04-09T01:00:21;57.07;;;36.53;;
4323;SDS011;2175;51.018;6.994;2023-04-09T01:02:47;56.80;;;37.33;;
4323;SDS011;2175;51.018;6.994;2023-04-09T01:05:13;52.13;;;36.07;;
4323;SDS011;2175;51.018;6.994;2023-04-09T01:08:23;55.73;;;37.30;;
4323;SDS011;2175;51.018;6.994;2023-04-09T01:13:15;60.37;;;39.40;;
4323;SDS011;2175;51.018;6.994;2023-04-09T01:15:51;59.23;;;38.50;;
4323;SDS011;2175;51.018;6.994;2023-04-09T01:18:22;54.90;;;35.80;;
4323;SDS011;2175;51.018;6.994;2023-04-09T01:20:56;55.10;;;37.07;;
4323;SDS011;2175;51.018;6.994;2023-04-09T01:29:00;57.83;;;37.73;;
4323;SDS011;2175;51.018;6.994;2023-04-09T01:31:30;58.23;;;37.23;;
4323;SDS011;2175;51.018;6.994;2023-04-09T01:33:59;54.70;;;37.60;;
4323;SDS011;2175;51.018;6.994;2023-04-09T01:36:26;53.07;;;36.10;;
4323;SDS011;2175;51.018;6.994;2023-04-09T01:38:53;55.27;;;36.53;;
4323;SDS011;2175;51.018;6.994;2023-04-09T01:41:20;62.33;;;38.40;;
4323;SDS011;2175;51.018;6.994;2023-04-09T01:43:48;59.23;;;37.07;;
4323;SDS011;2175;51.018;6.994;2023-04-09T01:46:16;52.10;;;35.60;;
4323;SDS011;2175;51.018;6.994;2023-04-09T01:48:43;54.10;;;36.10;;
4323;SDS011;2175;51.018;6.994;2023-04-09T01:51:10;59.00;;;38.27;;
4323;SDS011;2175;51.018;6.994;2023-04-09T01:53:38;50.83;;;34.57;;
4323;SDS011;2175;51.018;6.994;2023-04-09T01:56:05;51.17;;;35.90;;
4323;SDS011;2175;51.018;6.994;2023-04-09T01:58:32;52.10;;;36.67;;
4323;SDS011;2175;51.018;6.994;2023-04-09T02:01:44;54.77;;;37.37;;
4323;SDS011;2175;51.018;6.994;2023-04-09T02:04:15;55.43;;;36.10;;
4323;SDS011;2175;51.018;6.994;2023-04-09T02:09:38;48.23;;;33.30;;
4323;SDS011;2175;51.018;6.994;2023-04-09T02:12:06;52.03;;;34.37;;
4323;SDS011;2175;51.018;6.994;2023-04-09T02:14:36;55.97;;;34.47;;
4323;SDS011;2175;51.018;6.994;2023-04-09T02:17:03;57.13;;;35.80;;
4323;SDS011;2175;51.018;6.994;2023-04-09T02:19:41;50.23;;;33.37;;
4323;SDS011;2175;51.018;6.994;2023-04-09T02:22:11;52.20;;;35.70;;
4323;SDS011;2175;51.018;6.994;2023-04-09T02:24:37;54.23;;;34.27;;
4323;SDS011;2175;51.018;6.994;2023-04-09T02:27:04;51.93;;;34.63;;
4323;SDS011;2175;51.018;6.994;2023-04-09T02:29:31;51.53;;;34.67;;
4323;SDS011;2175;51.018;6.994;2023-04-09T02:31:56;53.00;;;35.27;;
4323;SDS011;2175;51.018;6.994;2023-04-09T02:34:22;53.23;;;33.97;;
4323;SDS011;2175;51.018;6.994;2023-04-09T02:36:48;50.17;;;34.43;;
4323;SDS011;2175;51.018;6.994;2023-04-09T02:39:14;49.27;;;32.77;;
4323;SDS011;2175;51.018;6.994;2023-04-09T02:41:40;51.60;;;35.70;;
4323;SDS011;2175;51.018;6.994;2023-04-09T02:44:05;56.20;;;36.73;;
4323;SDS011;2175;51.018;6.994;2023-04-09T02:46:31;56.03;;;35.67;;
4323;SDS011;2175;51.018;6.994;2023-04-09T02:48:57;48.57;;;33.33;;
4323;SDS011;2175;51.018;6.994;2023-04-09T02:51:22;56.90;;;36.40;;
4323;SDS011;2175;51.018;6.994;2023-04-09T02:53:48;52.37;;;35.77;;
4323;SDS011;2175;51.018;6.994;2023-04-09T02:56:14;55.67;;;35.17;;
4323;SDS011;2175;51.018;6.994;2023-04-09T02:58:39;49.83;;;34.50;;
4323;SDS011;2175;51.018;6.994;2023-04-09T03:01:05;51.23;;;35.30;;
4323;SDS011;2175;51.018;6.994;2023-04-09T03:03:31;53.80;;;35.43;;
4323;SDS011;2175;51.018;6.994;2023-04-09T03:05:57;57.80;;;36.03;;
4323;SDS011;2175;51.018;6.994;2023-04-09T03:08:22;53.70;;;35.47;;
4323;SDS011;2175;51.018;6.994;2023-04-09T03:10:48;59.50;;;37.13;;
4323;SDS011;2175;51.018;6.994;2023-04-09T03:13:13;52.07;;;34.80;;
4323;SDS011;2175;51.018;6.994;2023-04-09T03:15:39;51.10;;;34.30;;
4323;SDS011;2175;51.018;6.994;2023-04-09T03:18:05;50.03;;;33.17;;
4323;SDS011;2175;51.018;6.994;2023-04-09T03:20:31;53.03;;;35.03;;
4323;SDS011;2175;51.018;6.994;2023-04-09T03:22:57;53.30;;;33.33;;
4323;SDS011;2175;51.018;6.994;2023-04-09T03:25:22;52.40;;;35.40;;
4323;SDS011;2175;51.018;6.994;2023-04-09T03:27:48;49.07;;;32.77;;
4323;SDS011;2175;51.018;6.994;2023-04-09T03:30:14;48.37;;;31.57;;
4323;SDS011;2175;51.018;6.994;2023-04-09T03:32:39;49.30;;;32.33;;
4323;SDS011;2175;51.018;6.994;2023-04-09T03:35:05;50.80;;;33.60;;
4323;SDS011;2175;51.018;6.994;2023-04-09T03:37:31;54.60;;;34.73;;
4323;SDS011;2175;51.018;6.994;2023-04-09T03:39:57;50.97;;;32.10;;
4323;SDS011;2175;51.018;6.994;2023-04-09T03:42:22;47.87;;;31.83;;
4323;SDS011;2175;51.018;6.994;2023-04-09T03:44:48;53.07;;;32.80;;
4323;SDS011;2175;51.018;6.994;2023-04-09T03:47:13;55.83;;;34.20;;
4323;SDS011;2175;51.018;6.994;2023-04-09T03:49:39;52.73;;;35.43;;
4323;SDS011;2175;51.018;6.994;2023-04-09T03:52:05;52.70;;;33.43;;
4323;SDS011;2175;51.018;6.994;2023-04-09T03:54:31;54.63;;;35.53;;
4323;SDS011;2175;51.018;6.994;2023-04-09T03:56:56;54.20;;;34.17;;
4323;SDS011;2175;51.018;6.994;2023-04-09T03:59:22;50.10;;;34.80;;
4323;SDS011;2175;51.018;6.994;2023-04-09T04:01:48;52.27;;;33.03;;
4323;SDS011;2175;51.018;6.994;2023-04-09T04:04:14;53.47;;;34.33;;
4323;SDS011;2175;51.018;6.994;2023-04-09T04:06:40;53.70;;;35.00;;
4323;SDS011;2175;51.018;6.994;2023-04-09T04:09:05;54.63;;;36.07;;
4323;SDS011;2175;51.018;6.994;2023-04-09T04:11:31;53.80;;;34.83;;
4323;SDS011;2175;51.018;6.994;2023-04-09T04:13:57;52.00;;;34.23;;
4323;SDS011;2175;51.018;6.994;2023-04-09T04:16:22;57.87;;;35.63;;
4323;SDS011;2175;51.018;6.994;2023-04-09T04:18:48;53.00;;;35.13;;
4323;SDS011;2175;51.018;6.994;2023-04-09T04:21:14;56.57;;;35.43;;
4323;SDS011;2175;51.018;6.994;2023-04-09T04:23:40;52.10;;;33.80;;
4323;SDS011;2175;51.018;6.994;2023-04-09T04:26:09;51.27;;;33.43;;
4323;SDS011;2175;51.018;6.994;2023-04-09T04:28:35;54.47;;;35.27;;
4323;SDS011;2175;51.018;6.994;2023-04-09T04:31:01;52.77;;;33.57;;
4323;SDS011;2175;51.018;6.994;2023-04-09T04:33:27;55.90;;;33.57;;
4323;SDS011;2175;51.018;6.994;2023-04-09T04:35:52;50.17;;;32.13;;
4323;SDS011;2175;51.018;6.994;2023-04-09T04:38:18;49.33;;;32.80;;
4323;SDS011;2175;51.018;6.994;2023-04-09T04:40:43;52.77;;;34.43;;
4323;SDS011;2175;51.018;6.994;2023-04-09T04:43:09;55.60;;;34.77;;
4323;SDS011;2175;51.018;6.994;2023-04-09T04:45:35;47.67;;;31.57;;
4323;SDS011;2175;51.018;6.994;2023-04-09T04:48:00;52.57;;;33.93;;
4323;SDS011;2175;51.018;6.994;2023-04-09T04:50:26;52.40;;;33.73;;
4323;SDS011;2175;51.018;6.994;2023-04-09T04:52:51;50.10;;;33.27;;
4323;SDS011;2175;51.018;6.994;2023-04-09T04:55:18;48.00;;;31.80;;
4323;SDS011;2175;51.018;6.994;2023-04-09T04:57:43;51.93;;;34.10;;
4323;SDS011;2175;51.018;6.994;2023-04-09T05:00:09;53.87;;;34.23;;
4323;SDS011;2175;51.018;6.994;2023-04-09T05:02:35;55.90;;;32.80;;
4323;SDS011;2175;51.018;6.994;2023-04-09T05:05:01;50.03;;;32.77;;
4323;SDS011;2175;51.018;6.994;2023-04-09T05:07:27;50.60;;;33.13;;
4323;SDS011;2175;51.018;6.994;2023-04-09T05:09:53;50.63;;;32.50;;
4323;SDS011;2175;51.018;6.994;2023-04-09T05:12:18;48.77;;;33.17;;
4323;SDS011;2175;51.018;6.994;2023-04-09T05:14:44;44.73;;;29.60;;
4323;SDS011;2175;51.018;6.994;2023-04-09T05:17:10;50.53;;;33.70;;
4323;SDS011;2175;51.018;6.994;2023-04-09T05:19:35;48.03;;;31.60;;
4323;SDS011;2175;51.018;6.994;2023-04-09T05:22:01;48.33;;;30.97;;
4323;SDS011;2175;51.018;6.994;2023-04-09T05:24:26;54.03;;;33.07;;
4323;SDS011;2175;51.018;6.994;2023-04-09T05:26:52;45.00;;;30.63;;
4323;SDS011;2175;51.018;6.994;2023-04-09T05:29:17;45.83;;;31.13;;
4323;SDS011;2175;51.018;6.994;2023-04-09T05:31:43;50.40;;;29.83;;
4323;SDS011;2175;51.018;6.994;2023-04-09T05:34:09;46.13;;;29.70;;
4323;SDS011;2175;51.018;6.994;2023-04-09T05:36:35;47.77;;;30.47;;
4323;SDS011;2175;51.018;6.994;2023-04-09T05:39:00;48.33;;;30.80;;
4323;SDS011;2175;51.018;6.994;2023-04-09T05:41:26;51.80;;;31.80;;
4323;SDS011;2175;51.018;6.994;2023-04-09T05:43:52;53.70;;;29.40;;
4323;SDS011;2175;51.018;6.994;2023-04-09T05:46:17;49.80;;;31.00;;
4323;SDS011;2175;51.018;6.994;2023-04-09T05:48:43;50.53;;;31.10;;
4323;SDS011;2175;51.018;6.994;2023-04-09T05:51:08;41.67;;;29.90;;
4323;SDS011;2175;51.018;6.994;2023-04-09T05:53:34;41.93;;;27.90;;
4323;SDS011;2175;51.018;6.994;2023-04-09T05:56:03;50.00;;;29.63;;
4323;SDS011;2175;51.018;6.994;2023-04-09T05:58:38;47.63;;;29.90;;
4323;SDS011;2175;51.018;6.994;2023-04-09T06:01:03;46.73;;;31.20;;
4323;SDS011;2175;51.018;6.994;2023-04-09T06:03:29;46.07;;;30.50;;
4323;SDS011;2175;51.018;6.994;2023-04-09T06:05:58;40.40;;;29.37;;
4323;SDS011;2175;51.018;6.994;2023-04-09T06:08:23;45.60;;;29.27;;
4323;SDS011;2175;51.018;6.994;2023-04-09T06:10:49;44.10;;;28.40;;
4323;SDS011;2175;51.018;6.994;2023-04-09T06:13:14;42.57;;;28.13;;
4323;SDS011;2175;51.018;6.994;2023-04-09T06:15:40;42.00;;;27.97;;
4323;SDS011;2175;51.018;6.994;2023-04-09T06:18:06;39.20;;;27.10;;
4323;SDS011;2175;51.018;6.994;2023-04-09T06:20:31;41.23;;;27.03;;
4323;SDS011;2175;51.018;6.994;2023-04-09T06:22:57;48.00;;;29.40;;
4323;SDS011;2175;51.018;6.994;2023-04-09T06:25:23;45.53;;;27.03;;
4323;SDS011;2175;51.018;6.994;2023-04-09T06:27:48;39.97;;;26.80;;
4323;SDS011;2175;51.018;6.994;2023-04-09T06:30:14;40.93;;;26.07;;
4323;SDS011;2175;51.018;6.994;2023-04-09T06:32:40;37.47;;;25.57;;
4323;SDS011;2175;51.018;6.994;2023-04-09T06:35:05;35.83;;;23.93;;
4323;SDS011;2175;51.018;6.994;2023-04-09T06:37:32;36.27;;;24.27;;
4323;SDS011;2175;51.018;6.994;2023-04-09T06:39:58;42.63;;;25.97;;
4323;SDS011;2175;51.018;6.994;2023-04-09T06:42:24;40.27;;;23.83;;
4323;SDS011;2175;51.018;6.994;2023-04-09T06:44:50;34.20;;;22.60;;
4323;SDS011;2175;51.018;6.994;2023-04-09T06:47:16;32.13;;;20.87;;
4323;SDS011;2175;51.018;6.994;2023-04-09T06:49:45;34.53;;;22.53;;
4323;SDS011;2175;51.018;6.994;2023-04-09T06:52:13;34.03;;;21.87;;
4323;SDS011;2175;51.018;6.994;2023-04-09T06:54:39;27.83;;;18.60;;
4323;SDS011;2175;51.018;6.994;2023-04-09T06:57:05;30.20;;;20.57;;
4323;SDS011;2175;51.018;6.994;2023-04-09T06:59:31;27.50;;;20.60;;
4323;SDS011;2175;51.018;6.994;2023-04-09T07:01:57;27.80;;;18.00;;
4323;SDS011;2175;51.018;6.994;2023-04-09T07:04:23;28.27;;;18.33;;
4323;SDS011;2175;51.018;6.994;2023-04-09T07:06:49;29.10;;;18.33;;
4323;SDS011;2175;51.018;6.994;2023-04-09T07:09:18;30.70;;;19.10;;
4323;SDS011;2175;51.018;6.994;2023-04-09T07:11:44;28.20;;;18.40;;
4323;SDS011;2175;51.018;6.994;2023-04-09T07:14:10;27.97;;;19.00;;
4323;SDS011;2175;51.018;6.994;2023-04-09T07:16:36;26.00;;;18.67;;
4323;SDS011;2175;51.018;6.994;2023-04-09T07:19:01;26.73;;;17.53;;
4323;SDS011;2175;51.018;6.994;2023-04-09T07:21:27;33.47;;;19.33;;
4323;SDS011;2175;51.018;6.994;2023-04-09T07:23:53;20.87;;;15.47;;
4323;SDS011;2175;51.018;6.994;2023-04-09T07:26:20;23.97;;;16.60;;
4323;SDS011;2175;51.018;6.994;2023-04-09T07:28:59;28.50;;;18.30;;
4323;SDS011;2175;51.018;6.994;2023-04-09T07:31:34;22.80;;;16.67;;
4323;SDS011;2175;51.018;6.994;2023-04-09T07:34:00;26.10;;;17.07;;
4323;SDS011;2175;51.018;6.994;2023-04-09T07:36:26;23.67;;;16.33;;
4323;SDS011;2175;51.018;6.994;2023-04-09T07:38:51;24.83;;;16.70;;
4323;SDS011;2175;51.018;6.994;2023-04-09T07:41:18;23.50;;;16.87;;
4323;SDS011;2175;51.018;6.994;2023-04-09T07:43:43;22.90;;;15.33;;
4323;SDS011;2175;51.018;6.994;2023-04-09T07:46:09;22.83;;;16.10;;
4323;SDS011;2175;51.018;6.994;2023-04-09T07:48:35;19.40;;;14.23;;
4323;SDS011;2175;51.018;6.994;2023-04-09T07:51:00;18.17;;;14.10;;
4323;SDS011;2175;51.018;6.994;2023-04-09T07:53:26;19.60;;;14.67;;
4323;SDS011;2175;51.018;6.994;2023-04-09T07:55:51;17.77;;;13.50;;
4323;SDS011;2175;51.018;6.994;2023-04-09T07:58:17;18.30;;;13.23;;
4323;SDS011;2175;51.018;6.994;2023-04-09T08:00:43;17.13;;;13.03;;
4323;SDS011;2175;51.018;6.994;2023-04-09T08:03:08;14.80;;;11.37;;
4323;SDS011;2175;51.018;6.994;2023-04-09T08:05:34;14.10;;;11.13;;
4323;SDS011;2175;51.018;6.994;2023-04-09T08:08:02;13.20;;;10.63;;
4323;SDS011;2175;51.018;6.994;2023-04-09T08:10:27;14.87;;;10.80;;
4323;SDS011;2175;51.018;6.994;2023-04-09T08:12:53;13.93;;;10.57;;
4323;SDS011;2175;51.018;6.994;2023-04-09T08:15:18;11.93;;;10.00;;
4323;SDS011;2175;51.018;6.994;2023-04-09T08:17:44;9.87;;;8.80;;
4323;SDS011;2175;51.018;6.994;2023-04-09T08:20:10;10.93;;;9.77;;
4323;SDS011;2175;51.018;6.994;2023-04-09T08:22:36;11.00;;;9.77;;
4323;SDS011;2175;51.018;6.994;2023-04-09T08:25:02;11.50;;;9.17;;
4323;SDS011;2175;51.018;6.994;2023-04-09T08:27:28;10.70;;;9.60;;
4323;SDS011;2175;51.018;6.994;2023-04-09T08:29:53;12.77;;;9.30;;
4323;SDS011;2175;51.018;6.994;2023-04-09T08:32:19;11.90;;;7.93;;
4323;SDS011;2175;51.018;6.994;2023-04-09T08:34:45;10.50;;;8.40;;
4323;SDS011;2175;51.018;6.994;2023-04-09T08:37:10;11.43;;;9.87;;
4323;SDS011;2175;51.018;6.994;2023-04-09T08:39:36;11.13;;;9.80;;
4323;SDS011;2175;51.018;6.994;2023-04-09T08:42:01;9.80;;;8.73;;
4323;SDS011;2175;51.018;6.994;2023-04-09T08:44:30;9.77;;;8.20;;
4323;SDS011;2175;51.018;6.994;2023-04-09T08:46:56;10.33;;;9.00;;
4323;SDS011;2175;51.018;6.994;2023-04-09T08:49:23;10.93;;;9.27;;
4323;SDS011;2175;51.018;6.994;2023-04-09T08:51:49;10.63;;;9.20;;
4323;SDS011;2175;51.018;6.994;2023-04-09T08:54:15;9.93;;;8.67;;
4323;SDS011;2175;51.018;6.994;2023-04-09T08:56:43;10.03;;;8.23;;
4323;SDS011;2175;51.018;6.994;2023-04-09T08:59:10;11.33;;;9.57;;
4323;SDS011;2175;51.018;6.994;2023-04-09T09:01:38;9.73;;;8.23;;
4323;SDS011;2175;51.018;6.994;2023-04-09T09:04:05;9.50;;;8.50;;
4323;SDS011;2175;51.018;6.994;2023-04-09T09:06:33;10.60;;;8.83;;
4323;SDS011;2175;51.018;6.994;2023-04-09T09:11:32;9.87;;;8.40;;
4323;SDS011;2175;51.018;6.994;2023-04-09T09:14:03;8.80;;;7.83;;
4323;SDS011;2175;51.018;6.994;2023-04-09T09:16:34;11.33;;;8.23;;
4323;SDS011;2175;51.018;6.994;2023-04-09T09:19:04;9.13;;;7.00;;
4323;SDS011;2175;51.018;6.994;2023-04-09T09:21:29;8.70;;;7.07;;
4323;SDS011;2175;51.018;6.994;2023-04-09T09:23:55;6.83;;;6.10;;
4323;SDS011;2175;51.018;6.994;2023-04-09T09:26:23;8.10;;;6.17;;
4323;SDS011;2175;51.018;6.994;2023-04-09T09:28:50;7.90;;;6.30;;
4323;SDS011;2175;51.018;6.994;2023-04-09T09:31:17;8.03;;;6.83;;
4323;SDS011;2175;51.018;6.994;2023-04-09T09:33:45;7.40;;;6.50;;
4323;SDS011;2175;51.018;6.994;2023-04-09T09:36:12;7.10;;;6.40;;
4323;SDS011;2175;51.018;6.994;2023-04-09T09:41:23;8.83;;;7.43;;
4323;SDS011;2175;51.018;6.994;2023-04-09T09:43:50;8.17;;;6.90;;
4323;SDS011;2175;51.018;6.994;2023-04-09T09:46:17;8.67;;;6.63;;
4323;SDS011;2175;51.018;6.994;2023-04-09T09:48:43;9.43;;;7.70;;
4323;SDS011;2175;51.018;6.994;2023-04-09T09:51:14;9.17;;;6.70;;
4323;SDS011;2175;51.018;6.994;2023-04-09T09:53:42;10.90;;;7.30;;
4323;SDS011;2175;51.018;6.994;2023-04-09T09:56:20;7.63;;;6.70;;
4323;SDS011;2175;51.018;6.994;2023-04-09T09:58:52;8.83;;;7.30;;
4323;SDS011;2175;51.018;6.994;2023-04-09T10:01:23;8.37;;;6.60;;
4323;SDS011;2175;51.018;6.994;2023-04-09T10:03:51;8.57;;;6.90;;
4323;SDS011;2175;51.018;6.994;2023-04-09T10:06:20;8.43;;;6.57;;
4323;SDS011;2175;51.018;6.994;2023-04-09T10:08:47;9.50;;;7.50;;
4323;SDS011;2175;51.018;6.994;2023-04-09T10:11:13;8.63;;;7.07;;
4323;SDS011;2175;51.018;6.994;2023-04-09T10:13:40;8.80;;;7.47;;
4323;SDS011;2175;51.018;6.994;2023-04-09T10:16:12;7.93;;;6.60;;
4323;SDS011;2175;51.018;6.994;2023-04-09T10:18:39;9.07;;;7.53;;
4323;SDS011;2175;51.018;6.994;2023-04-09T10:23:48;9.97;;;8.33;;
4323;SDS011;2175;51.018;6.994;2023-04-09T10:26:17;8.70;;;6.90;;
4323;SDS011;2175;51.018;6.994;2023-04-09T10:28:43;8.83;;;7.30;;
4323;SDS011;2175;51.018;6.994;2023-04-09T10:31:09;9.63;;;8.03;;
4323;SDS011;2175;51.018;6.994;2023-04-09T10:33:36;11.10;;;8.47;;
4323;SDS011;2175;51.018;6.994;2023-04-09T10:36:03;9.87;;;8.17;;
4323;SDS011;2175;51.018;6.994;2023-04-09T10:41:12;12.63;;;8.60;;
4323;SDS011;2175;51.018;6.994;2023-04-09T10:43:41;10.10;;;8.30;;
4323;SDS011;2175;51.018;6.994;2023-04-09T10:46:23;10.27;;;7.90;;
4323;SDS011;2175;51.018;6.994;2023-04-09T10:49:10;14.37;;;10.03;;
4323;SDS011;2175;51.018;6.994;2023-04-09T10:51:53;10.80;;;8.80;;
4323;SDS011;2175;51.018;6.994;2023-04-09T10:59:31;10.40;;;8.80;;
4323;SDS011;2175;51.018;6.994;2023-04-09T11:01:57;11.63;;;8.43;;
4323;SDS011;2175;51.018;6.994;2023-04-09T11:04:23;11.33;;;8.63;;
4323;SDS011;2175;51.018;6.994;2023-04-09T11:07:02;12.00;;;8.90;;
4323;SDS011;2175;51.018;6.994;2023-04-09T11:09:33;10.37;;;8.53;;
4323;SDS011;2175;51.018;6.994;2023-04-09T11:12:00;9.27;;;7.50;;
4323;SDS011;2175;51.018;6.994;2023-04-09T11:14:27;10.90;;;8.70;;
4323;SDS011;2175;51.018;6.994;2023-04-09T11:16:53;9.00;;;7.93;;
4323;SDS011;2175;51.018;6.994;2023-04-09T11:19:19;9.50;;;7.80;;
4323;SDS011;2175;51.018;6.994;2023-04-09T11:21:46;10.50;;;8.73;;
4323;SDS011;2175;51.018;6.994;2023-04-09T11:24:13;10.47;;;8.27;;
4323;SDS011;2175;51.018;6.994;2023-04-09T11:26:42;10.57;;;8.20;;
4323;SDS011;2175;51.018;6.994;2023-04-09T11:29:08;9.77;;;8.00;;
4323;SDS011;2175;51.018;6.994;2023-04-09T11:31:34;9.27;;;7.23;;
4323;SDS011;2175;51.018;6.994;2023-04-09T11:34:00;10.00;;;8.07;;
4323;SDS011;2175;51.018;6.994;2023-04-09T11:36:26;9.47;;;7.77;;
4323;SDS011;2175;51.018;6.994;2023-04-09T11:38:52;8.73;;;7.33;;
4323;SDS011;2175;51.018;6.994;2023-04-09T11:41:40;9.50;;;8.30;;
4323;SDS011;2175;51.018;6.994;2023-04-09T11:44:08;8.80;;;7.40;;
4323;SDS011;2175;51.018;6.994;2023-04-09T11:46:35;9.90;;;7.53;;
4323;SDS011;2175;51.018;6.994;2023-04-09T11:49:02;8.87;;;7.27;;
4323;SDS011;2175;51.018;6.994;2023-04-09T11:51:28;8.63;;;7.07;;
4323;SDS011;2175;51.018;6.994;2023-04-09T11:53:58;9.53;;;6.93;;
4323;SDS011;2175;51.018;6.994;2023-04-09T11:56:35;10.50;;;7.40;;
4323;SDS011;2175;51.018;6.994;2023-04-09T11:59:01;8.30;;;7.23;;
4323;SDS011;2175;51.018;6.994;2023-04-09T12:01:31;8.07;;;6.73;;
4323;SDS011;2175;51.018;6.994;2023-04-09T12:03:57;8.13;;;6.83;;
4323;SDS011;2175;51.018;6.994;2023-04-09T12:06:23;8.70;;;6.80;;
4323;SDS011;2175;51.018;6.994;2023-04-09T12:08:53;7.93;;;6.60;;
4323;SDS011;2175;51.018;6.994;2023-04-09T12:11:26;13.73;;;7.40;;
4323;SDS011;2175;51.018;6.994;2023-04-09T12:14:02;9.77;;;7.27;;
4323;SDS011;2175;51.018;6.994;2023-04-09T12:16:29;7.63;;;6.03;;
4323;SDS011;2175;51.018;6.994;2023-04-09T12:19:06;8.30;;;6.17;;
4323;SDS011;2175;51.018;6.994;2023-04-09T12:21:45;8.90;;;6.07;;
4323;SDS011;2175;51.018;6.994;2023-04-09T12:24:12;7.90;;;6.33;;
4323;SDS011;2175;51.018;6.994;2023-04-09T12:26:38;8.80;;;6.23;;
4323;SDS011;2175;51.018;6.994;2023-04-09T12:29:03;9.23;;;6.87;;
4323;SDS011;2175;51.018;6.994;2023-04-09T12:31:29;7.97;;;6.53;;
4323;SDS011;2175;51.018;6.994;2023-04-09T12:33:55;7.93;;;6.17;;
4323;SDS011;2175;51.018;6.994;2023-04-09T12:36:20;7.97;;;6.03;;
4323;SDS011;2175;51.018;6.994;2023-04-09T12:38:48;7.60;;;6.10;;
4323;SDS011;2175;51.018;6.994;2023-04-09T12:41:13;8.33;;;6.67;;
4323;SDS011;2175;51.018;6.994;2023-04-09T12:43:40;8.33;;;6.40;;
4323;SDS011;2175;51.018;6.994;2023-04-09T12:46:07;8.50;;;6.27;;
4323;SDS011;2175;51.018;6.994;2023-04-09T12:48:32;7.97;;;6.23;;
4323;SDS011;2175;51.018;6.994;2023-04-09T12:50:58;7.60;;;6.20;;
4323;SDS011;2175;51.018;6.994;2023-04-09T12:53:24;8.43;;;6.40;;
4323;SDS011;2175;51.018;6.994;2023-04-09T12:55:50;8.57;;;6.40;;
4323;SDS011;2175;51.018;6.994;2023-04-09T12:58:16;9.30;;;6.50;;
4323;SDS011;2175;51.018;6.994;2023-04-09T13:00:41;7.90;;;6.70;;
4323;SDS011;2175;51.018;6.994;2023-04-09T13:03:07;7.87;;;7.07;;
4323;SDS011;2175;51.018;6.994;2023-04-09T13:05:33;7.87;;;6.00;;
4323;SDS011;2175;51.018;6.994;2023-04-09T13:07:59;7.90;;;6.50;;
4323;SDS011;2175;51.018;6.994;2023-04-09T13:10:26;6.80;;;5.90;;
4323;SDS011;2175;51.018;6.994;2023-04-09T13:12:54;7.40;;;6.10;;
4323;SDS011;2175;51.018;6.994;2023-04-09T13:15:19;9.47;;;6.40;;
4323;SDS011;2175;51.018;6.994;2023-04-09T13:17:46;7.90;;;5.87;;
4323;SDS011;2175;51.018;6.994;2023-04-09T13:20:11;8.27;;;6.50;;
4323;SDS011;2175;51.018;6.994;2023-04-09T13:22:37;9.80;;;7.40;;
4323;SDS011;2175;51.018;6.994;2023-04-09T13:25:03;9.00;;;6.60;;
4323;SDS011;2175;51.018;6.994;2023-04-09T13:27:29;9.33;;;6.57;;
4323;SDS011;2175;51.018;6.994;2023-04-09T13:29:55;8.70;;;6.57;;
4323;SDS011;2175;51.018;6.994;2023-04-09T13:32:21;9.27;;;6.90;;
4323;SDS011;2175;51.018;6.994;2023-04-09T13:34:48;9.27;;;7.27;;
4323;SDS011;2175;51.018;6.994;2023-04-09T13:37:13;10.37;;;7.60;;
4323;SDS011;2175;51.018;6.994;2023-04-09T13:39:39;12.87;;;7.73;;
4323;SDS011;2175;51.018;6.994;2023-04-09T13:42:05;8.30;;;6.77;;
4323;SDS011;2175;51.018;6.994;2023-04-09T13:44:31;8.43;;;6.83;;
4323;SDS011;2175;51.018;6.994;2023-04-09T13:46:59;7.17;;;5.90;;
4323;SDS011;2175;51.018;6.994;2023-04-09T13:49:25;7.23;;;5.60;;
4323;SDS011;2175;51.018;6.994;2023-04-09T13:51:51;8.17;;;6.80;;
4323;SDS011;2175;51.018;6.994;2023-04-09T13:54:17;7.77;;;6.40;;
4323;SDS011;2175;51.018;6.994;2023-04-09T13:56:44;8.50;;;6.53;;
4323;SDS011;2175;51.018;6.994;2023-04-09T13:59:10;7.10;;;6.13;;
4323;SDS011;2175;51.018;6.994;2023-04-09T14:01:36;7.27;;;6.17;;
4323;SDS011;2175;51.018;6.994;2023-04-09T14:04:02;8.00;;;6.60;;
4323;SDS011;2175;51.018;6.994;2023-04-09T14:06:27;8.83;;;6.90;;
4323;SDS011;2175;51.018;6.994;2023-04-09T14:08:53;8.47;;;6.40;;
4323;SDS011;2175;51.018;6.994;2023-04-09T14:11:19;7.80;;;5.87;;
4323;SDS011;2175;51.018;6.994;2023-04-09T14:13:45;8.83;;;7.37;;
4323;SDS011;2175;51.018;6.994;2023-04-09T14:16:11;8.33;;;6.53;;
4323;SDS011;2175;51.018;6.994;2023-04-09T14:18:36;8.73;;;6.80;;
4323;SDS011;2175;51.018;6.994;2023-04-09T14:21:03;8.60;;;6.20;;
4323;SDS011;2175;51.018;6.994;2023-04-09T14:23:29;7.27;;;6.13;;
4323;SDS011;2175;51.018;6.994;2023-04-09T14:25:55;7.50;;;6.07;;
4323;SDS011;2175;51.018;6.994;2023-04-09T14:28:20;6.77;;;5.80;;
4323;SDS011;2175;51.018;6.994;2023-04-09T14:30:46;8.33;;;6.20;;
4323;SDS011;2175;51.018;6.994;2023-04-09T14:33:11;6.33;;;5.43;;
4323;SDS011;2175;51.018;6.994;2023-04-09T14:35:37;8.73;;;5.80;;
4323;SDS011;2175;51.018;6.994;2023-04-09T14:38:02;8.17;;;6.20;;
4323;SDS011;2175;51.018;6.994;2023-04-09T14:40:29;8.00;;;6.10;;
4323;SDS011;2175;51.018;6.994;2023-04-09T14:42:56;6.60;;;5.50;;
4323;SDS011;2175;51.018;6.994;2023-04-09T14:45:25;7.37;;;5.97;;
4323;SDS011;2175;51.018;6.994;2023-04-09T14:47:50;7.13;;;5.93;;
4323;SDS011;2175;51.018;6.994;2023-04-09T14:50:16;7.60;;;6.10;;
4323;SDS011;2175;51.018;6.994;2023-04-09T14:52:43;6.60;;;5.80;;
4323;SDS011;2175;51.018;6.994;2023-04-09T14:55:09;7.83;;;6.27;;
4323;SDS011;2175;51.018;6.994;2023-04-09T14:57:37;10.03;;;6.27;;
4323;SDS011;2175;51.018;6.994;2023-04-09T15:00:05;8.93;;;5.93;;
4323;SDS011;2175;51.018;6.994;2023-04-09T15:02:31;7.63;;;5.80;;
4323;SDS011;2175;51.018;6.994;2023-04-09T15:04:58;6.97;;;6.27;;
4323;SDS011;2175;51.018;6.994;2023-04-09T15:07:24;7.80;;;6.30;;
4323;SDS011;2175;51.018;6.994;2023-04-09T15:09:51;11.83;;;6.77;;
4323;SDS011;2175;51.018;6.994;2023-04-09T15:12:17;6.70;;;5.57;;
4323;SDS011;2175;51.018;6.994;2023-04-09T15:14:42;7.50;;;5.63;;
4323;SDS011;2175;51.018;6.994;2023-04-09T15:17:08;7.37;;;6.10;;
4323;SDS011;2175;51.018;6.994;2023-04-09T15:19:33;7.13;;;6.23;;
4323;SDS011;2175;51.018;6.994;2023-04-09T15:21:59;8.37;;;6.30;;
4323;SDS011;2175;51.018;6.994;2023-04-09T15:24:25;7.33;;;5.80;;